CWYO2: Chewey Road

Data processed at Fri May 26 2017 22:28


All information presented herein is the property of the government of the United States of America and may be revised or deleted at any time without prior notice.
Dissemination of this information without the expressed written consent of the Public Affairs Office, Tulsa District U.S. Army Corps of Engineers is strictly prohibited.
These data are gathered electronically and, as presented, have not undergone any form of quality control. These data are not guaranteed to be valid or correct.
Go to home page.
Go to station list.
Go to home page.

Upstream stations:

Downstream station:
Previous Day
Next Day
Current Day
    
SHEF ID:       CWYO2     Illinois River at Chewey, OK
STATION TYPE:  

               PRECIP     STAGE  STAGE(2)  RIV-FLOW  BAT-LOAD
                   in        ft        ft       cfs      volt
              Ccp-Rev   Ccp-Rev   Ccp-Rev   Ccp-Rev   Ccp-Rev
(US/Central)
05/26 00:00      0.00      6.23      6.26      1255     12.71
05/26 01:00      0.00      6.23      6.25      1255     12.71
05/26 02:00      0.00      6.23      6.24      1255     12.71
05/26 03:00      0.00      6.21      6.24      1237     12.71
05/26 04:00      0.00      6.22      6.17      1246     12.65
05/26 05:00      0.00      6.20      6.14      1228     12.65
05/26 06:00      0.00      6.19      6.21      1219     12.65
05/26 07:00      0.00      6.18      6.17      1211     12.65
05/26 08:00      0.00      6.19      6.14      1219     12.65
05/26 09:00      0.00      6.19      6.16      1219     12.77
05/26 10:00      0.00      6.17      6.11      1202     12.95
05/26 11:00      0.00      6.16      6.10      1193     13.12
05/26 12:00      0.00      6.15      6.11      1185     13.24
05/26 13:00      0.00      6.14      6.07      1176     13.59
05/26 14:00      0.00      6.14      6.15      1176     13.07
05/26 15:00      0.00      6.12      6.08      1159     13.48
05/26 16:00      0.00      6.12      6.08      1159     13.59
05/26 17:00      0.00      6.13      6.09      1168     13.07
05/26 18:00      0.00      6.12      6.12      1159     13.00
05/26 19:00      0.00      6.10      6.11      1142     12.89
05/26 20:00      0.00      6.09      6.10      1133     12.83
05/26 21:00      0.00      6.08      6.09      1125     12.71
05/26 22:00      0.00      6.07      6.08      1117     12.71
05/26 23:00      ----      ----      ----      ----      ----